sensor_id;sensor_type;location;lat;lon;timestamp;P1;durP1;ratioP1;P2;durP2;ratioP2
2562;SDS011;1291;51.420;6.970;2022-09-12T00:02:19;28.45;;;19.23;;
2562;SDS011;1291;51.420;6.970;2022-09-12T00:04:45;25.48;;;18.88;;
2562;SDS011;1291;51.420;6.970;2022-09-12T00:07:10;30.45;;;20.38;;
2562;SDS011;1291;51.420;6.970;2022-09-12T00:09:36;27.52;;;19.58;;
2562;SDS011;1291;51.420;6.970;2022-09-12T00:12:02;31.25;;;20.25;;
2562;SDS011;1291;51.420;6.970;2022-09-12T00:14:28;26.38;;;19.27;;
2562;SDS011;1291;51.420;6.970;2022-09-12T00:16:56;25.42;;;18.27;;
2562;SDS011;1291;51.420;6.970;2022-09-12T00:19:23;28.33;;;18.92;;
2562;SDS011;1291;51.420;6.970;2022-09-12T00:21:49;27.15;;;18.05;;
2562;SDS011;1291;51.420;6.970;2022-09-12T00:24:14;26.13;;;17.35;;
2562;SDS011;1291;51.420;6.970;2022-09-12T00:26:40;27.33;;;17.67;;
2562;SDS011;1291;51.420;6.970;2022-09-12T00:29:10;25.60;;;17.73;;
2562;SDS011;1291;51.420;6.970;2022-09-12T00:31:42;28.85;;;18.60;;
2562;SDS011;1291;51.420;6.970;2022-09-12T00:34:08;24.85;;;17.70;;
2562;SDS011;1291;51.420;6.970;2022-09-12T00:36:34;23.95;;;17.17;;
2562;SDS011;1291;51.420;6.970;2022-09-12T00:39:00;24.15;;;17.83;;
2562;SDS011;1291;51.420;6.970;2022-09-12T00:41:36;25.75;;;17.83;;
2562;SDS011;1291;51.420;6.970;2022-09-12T00:51:42;25.15;;;17.75;;
2562;SDS011;1291;51.420;6.970;2022-09-12T00:54:20;23.35;;;16.35;;
2562;SDS011;1291;51.420;6.970;2022-09-12T00:56:49;26.65;;;18.70;;
2562;SDS011;1291;51.420;6.970;2022-09-12T00:59:32;21.90;;;17.00;;
2562;SDS011;1291;51.420;6.970;2022-09-12T01:02:02;21.90;;;16.27;;
2562;SDS011;1291;51.420;6.970;2022-09-12T01:04:27;21.65;;;16.52;;
2562;SDS011;1291;51.420;6.970;2022-09-12T01:06:54;20.50;;;15.52;;
2562;SDS011;1291;51.420;6.970;2022-09-12T01:09:22;23.35;;;16.48;;
2562;SDS011;1291;51.420;6.970;2022-09-12T01:11:48;25.92;;;15.93;;
2562;SDS011;1291;51.420;6.970;2022-09-12T01:14:16;20.80;;;15.43;;
2562;SDS011;1291;51.420;6.970;2022-09-12T01:16:43;20.85;;;15.73;;
2562;SDS011;1291;51.420;6.970;2022-09-12T01:31:08;19.58;;;14.23;;
2562;SDS011;1291;51.420;6.970;2022-09-12T01:33:45;21.77;;;14.95;;
2562;SDS011;1291;51.420;6.970;2022-09-12T01:42:53;21.50;;;14.57;;
2562;SDS011;1291;51.420;6.970;2022-09-12T01:45:27;22.38;;;14.35;;
2562;SDS011;1291;51.420;6.970;2022-09-12T01:48:13;20.33;;;13.68;;
2562;SDS011;1291;51.420;6.970;2022-09-12T01:53:26;18.50;;;13.48;;
2562;SDS011;1291;51.420;6.970;2022-09-12T01:56:01;20.55;;;14.38;;
2562;SDS011;1291;51.420;6.970;2022-09-12T01:58:36;19.52;;;14.00;;
2562;SDS011;1291;51.420;6.970;2022-09-12T02:03:43;17.67;;;14.07;;
2562;SDS011;1291;51.420;6.970;2022-09-12T02:06:26;21.45;;;14.32;;
2562;SDS011;1291;51.420;6.970;2022-09-12T02:09:16;17.05;;;13.60;;
2562;SDS011;1291;51.420;6.970;2022-09-12T02:12:04;17.95;;;12.77;;
2562;SDS011;1291;51.420;6.970;2022-09-12T02:14:35;17.48;;;13.75;;
2562;SDS011;1291;51.420;6.970;2022-09-12T02:17:08;16.35;;;12.18;;
2562;SDS011;1291;51.420;6.970;2022-09-12T02:20:13;16.98;;;12.45;;
2562;SDS011;1291;51.420;6.970;2022-09-12T02:22:47;18.75;;;12.32;;
2562;SDS011;1291;51.420;6.970;2022-09-12T02:25:16;16.15;;;12.55;;
2562;SDS011;1291;51.420;6.970;2022-09-12T02:27:45;16.63;;;11.43;;
2562;SDS011;1291;51.420;6.970;2022-09-12T02:30:17;17.50;;;12.20;;
2562;SDS011;1291;51.420;6.970;2022-09-12T02:33:10;16.75;;;12.05;;
2562;SDS011;1291;51.420;6.970;2022-09-12T02:36:06;17.63;;;11.90;;
2562;SDS011;1291;51.420;6.970;2022-09-12T02:38:48;18.63;;;11.90;;
2562;SDS011;1291;51.420;6.970;2022-09-12T02:41:16;18.08;;;12.73;;
2562;SDS011;1291;51.420;6.970;2022-09-12T02:43:43;17.60;;;13.02;;
2562;SDS011;1291;51.420;6.970;2022-09-12T02:46:14;17.00;;;12.48;;
2562;SDS011;1291;51.420;6.970;2022-09-12T02:48:45;19.48;;;12.23;;
2562;SDS011;1291;51.420;6.970;2022-09-12T02:51:10;16.48;;;12.07;;
2562;SDS011;1291;51.420;6.970;2022-09-12T02:53:43;18.30;;;12.05;;
2562;SDS011;1291;51.420;6.970;2022-09-12T02:56:10;16.95;;;11.93;;
2562;SDS011;1291;51.420;6.970;2022-09-12T02:58:41;16.45;;;12.05;;
2562;SDS011;1291;51.420;6.970;2022-09-12T03:09:46;16.08;;;11.55;;
2562;SDS011;1291;51.420;6.970;2022-09-12T03:12:30;15.90;;;12.00;;
2562;SDS011;1291;51.420;6.970;2022-09-12T03:23:45;15.60;;;11.45;;
2562;SDS011;1291;51.420;6.970;2022-09-12T03:29:06;14.63;;;11.18;;
2562;SDS011;1291;51.420;6.970;2022-09-12T03:31:34;14.88;;;11.52;;
2562;SDS011;1291;51.420;6.970;2022-09-12T03:34:01;15.43;;;11.25;;
2562;SDS011;1291;51.420;6.970;2022-09-12T03:36:28;13.90;;;11.20;;
2562;SDS011;1291;51.420;6.970;2022-09-12T03:38:54;14.20;;;10.57;;
2562;SDS011;1291;51.420;6.970;2022-09-12T03:41:20;15.93;;;11.15;;
2562;SDS011;1291;51.420;6.970;2022-09-12T03:43:46;14.13;;;10.82;;
2562;SDS011;1291;51.420;6.970;2022-09-12T03:46:11;15.10;;;11.65;;
2562;SDS011;1291;51.420;6.970;2022-09-12T03:48:38;18.40;;;11.93;;
2562;SDS011;1291;51.420;6.970;2022-09-12T03:51:05;16.00;;;12.10;;
2562;SDS011;1291;51.420;6.970;2022-09-12T03:53:32;14.32;;;11.07;;
2562;SDS011;1291;51.420;6.970;2022-09-12T03:55:58;17.90;;;12.77;;
2562;SDS011;1291;51.420;6.970;2022-09-12T03:58:24;15.75;;;11.35;;
2562;SDS011;1291;51.420;6.970;2022-09-12T04:00:53;16.58;;;12.05;;
2562;SDS011;1291;51.420;6.970;2022-09-12T04:03:18;16.30;;;11.45;;
2562;SDS011;1291;51.420;6.970;2022-09-12T04:05:44;15.40;;;11.43;;
2562;SDS011;1291;51.420;6.970;2022-09-12T04:08:11;16.98;;;11.90;;
2562;SDS011;1291;51.420;6.970;2022-09-12T04:10:36;17.75;;;11.45;;
2562;SDS011;1291;51.420;6.970;2022-09-12T04:13:01;16.95;;;11.48;;
2562;SDS011;1291;51.420;6.970;2022-09-12T04:15:30;14.52;;;11.70;;
2562;SDS011;1291;51.420;6.970;2022-09-12T04:17:55;17.45;;;11.95;;
2562;SDS011;1291;51.420;6.970;2022-09-12T04:20:21;16.65;;;11.98;;
2562;SDS011;1291;51.420;6.970;2022-09-12T04:22:47;17.17;;;11.93;;
2562;SDS011;1291;51.420;6.970;2022-09-12T04:25:12;15.48;;;12.00;;
2562;SDS011;1291;51.420;6.970;2022-09-12T04:27:38;16.00;;;11.68;;
2562;SDS011;1291;51.420;6.970;2022-09-12T04:30:04;17.92;;;12.40;;
2562;SDS011;1291;51.420;6.970;2022-09-12T04:32:30;17.33;;;12.32;;
2562;SDS011;1291;51.420;6.970;2022-09-12T04:34:55;13.20;;;10.90;;
2562;SDS011;1291;51.420;6.970;2022-09-12T04:37:22;13.82;;;10.90;;
2562;SDS011;1291;51.420;6.970;2022-09-12T04:39:48;17.02;;;12.05;;
2562;SDS011;1291;51.420;6.970;2022-09-12T04:42:15;18.38;;;12.15;;
2562;SDS011;1291;51.420;6.970;2022-09-12T04:44:44;19.50;;;12.07;;
2562;SDS011;1291;51.420;6.970;2022-09-12T04:47:09;14.63;;;10.70;;
2562;SDS011;1291;51.420;6.970;2022-09-12T04:49:35;15.57;;;11.85;;
2562;SDS011;1291;51.420;6.970;2022-09-12T04:52:01;18.23;;;12.32;;
2562;SDS011;1291;51.420;6.970;2022-09-12T04:54:27;15.88;;;12.00;;
2562;SDS011;1291;51.420;6.970;2022-09-12T04:56:52;19.08;;;12.27;;
2562;SDS011;1291;51.420;6.970;2022-09-12T04:59:19;14.65;;;12.02;;
2562;SDS011;1291;51.420;6.970;2022-09-12T05:01:45;15.50;;;11.75;;
2562;SDS011;1291;51.420;6.970;2022-09-12T05:04:12;17.10;;;12.13;;
2562;SDS011;1291;51.420;6.970;2022-09-12T05:06:38;14.98;;;11.43;;
2562;SDS011;1291;51.420;6.970;2022-09-12T05:09:09;16.73;;;11.75;;
2562;SDS011;1291;51.420;6.970;2022-09-12T05:11:37;16.90;;;12.65;;
2562;SDS011;1291;51.420;6.970;2022-09-12T05:14:04;14.25;;;11.30;;
2562;SDS011;1291;51.420;6.970;2022-09-12T05:16:29;14.82;;;11.52;;
2562;SDS011;1291;51.420;6.970;2022-09-12T05:18:57;15.77;;;12.02;;
2562;SDS011;1291;51.420;6.970;2022-09-12T05:21:23;14.60;;;11.40;;
2562;SDS011;1291;51.420;6.970;2022-09-12T05:23:50;16.73;;;11.68;;
2562;SDS011;1291;51.420;6.970;2022-09-12T05:26:17;17.63;;;12.32;;
2562;SDS011;1291;51.420;6.970;2022-09-12T05:28:44;14.38;;;11.15;;
2562;SDS011;1291;51.420;6.970;2022-09-12T05:31:31;15.85;;;11.98;;
2562;SDS011;1291;51.420;6.970;2022-09-12T05:33:56;18.33;;;11.82;;
2562;SDS011;1291;51.420;6.970;2022-09-12T05:38:49;16.00;;;11.50;;
2562;SDS011;1291;51.420;6.970;2022-09-12T05:41:16;15.38;;;11.55;;
2562;SDS011;1291;51.420;6.970;2022-09-12T05:43:46;14.65;;;11.85;;
2562;SDS011;1291;51.420;6.970;2022-09-12T05:46:15;16.50;;;11.90;;
2562;SDS011;1291;51.420;6.970;2022-09-12T05:48:42;17.15;;;11.90;;
2562;SDS011;1291;51.420;6.970;2022-09-12T05:51:10;13.30;;;10.43;;
2562;SDS011;1291;51.420;6.970;2022-09-12T05:53:45;16.52;;;11.35;;
2562;SDS011;1291;51.420;6.970;2022-09-12T05:56:13;13.57;;;10.40;;
2562;SDS011;1291;51.420;6.970;2022-09-12T05:58:44;13.68;;;11.50;;
2562;SDS011;1291;51.420;6.970;2022-09-12T06:01:15;14.20;;;11.35;;
2562;SDS011;1291;51.420;6.970;2022-09-12T06:03:43;14.23;;;11.40;;
2562;SDS011;1291;51.420;6.970;2022-09-12T06:06:11;13.68;;;10.70;;
2562;SDS011;1291;51.420;6.970;2022-09-12T06:08:38;13.23;;;10.25;;
2562;SDS011;1291;51.420;6.970;2022-09-12T06:11:05;14.52;;;10.77;;
2562;SDS011;1291;51.420;6.970;2022-09-12T06:18:45;14.10;;;9.98;;
2562;SDS011;1291;51.420;6.970;2022-09-12T06:21:15;13.52;;;9.95;;
2562;SDS011;1291;51.420;6.970;2022-09-12T06:23:42;14.85;;;11.05;;
2562;SDS011;1291;51.420;6.970;2022-09-12T06:26:10;14.18;;;10.95;;
2562;SDS011;1291;51.420;6.970;2022-09-12T06:28:37;13.48;;;9.98;;
2562;SDS011;1291;51.420;6.970;2022-09-12T06:31:14;13.45;;;10.32;;
2562;SDS011;1291;51.420;6.970;2022-09-12T06:33:42;14.82;;;10.07;;
2562;SDS011;1291;51.420;6.970;2022-09-12T06:36:13;13.45;;;10.40;;
2562;SDS011;1291;51.420;6.970;2022-09-12T06:38:40;11.20;;;8.90;;
2562;SDS011;1291;51.420;6.970;2022-09-12T06:41:07;13.48;;;10.10;;
2562;SDS011;1291;51.420;6.970;2022-09-12T06:43:35;13.88;;;10.05;;
2562;SDS011;1291;51.420;6.970;2022-09-12T06:46:01;14.02;;;9.77;;
2562;SDS011;1291;51.420;6.970;2022-09-12T06:48:26;12.68;;;9.07;;
2562;SDS011;1291;51.420;6.970;2022-09-12T06:50:59;12.77;;;9.35;;
2562;SDS011;1291;51.420;6.970;2022-09-12T06:53:26;14.18;;;9.75;;
2562;SDS011;1291;51.420;6.970;2022-09-12T06:55:56;12.32;;;10.52;;
2562;SDS011;1291;51.420;6.970;2022-09-12T06:58:26;17.33;;;9.85;;
2562;SDS011;1291;51.420;6.970;2022-09-12T07:03:50;12.60;;;9.70;;
2562;SDS011;1291;51.420;6.970;2022-09-12T07:06:21;15.05;;;10.48;;
2562;SDS011;1291;51.420;6.970;2022-09-12T07:08:59;13.43;;;10.20;;
2562;SDS011;1291;51.420;6.970;2022-09-12T07:11:29;13.90;;;10.48;;
2562;SDS011;1291;51.420;6.970;2022-09-12T07:14:03;13.40;;;10.63;;
2562;SDS011;1291;51.420;6.970;2022-09-12T07:16:30;13.27;;;9.70;;
2562;SDS011;1291;51.420;6.970;2022-09-12T07:18:56;13.45;;;10.50;;
2562;SDS011;1291;51.420;6.970;2022-09-12T07:21:23;12.90;;;10.60;;
2562;SDS011;1291;51.420;6.970;2022-09-12T07:23:49;14.88;;;10.48;;
2562;SDS011;1291;51.420;6.970;2022-09-12T07:26:33;13.27;;;10.50;;
2562;SDS011;1291;51.420;6.970;2022-09-12T07:28:58;14.57;;;9.85;;
2562;SDS011;1291;51.420;6.970;2022-09-12T07:31:24;15.50;;;10.15;;
2562;SDS011;1291;51.420;6.970;2022-09-12T07:33:51;14.88;;;10.52;;
2562;SDS011;1291;51.420;6.970;2022-09-12T07:36:18;14.00;;;9.93;;
2562;SDS011;1291;51.420;6.970;2022-09-12T07:38:44;13.02;;;9.65;;
2562;SDS011;1291;51.420;6.970;2022-09-12T07:41:20;15.90;;;10.07;;
2562;SDS011;1291;51.420;6.970;2022-09-12T07:43:50;14.52;;;10.32;;
2562;SDS011;1291;51.420;6.970;2022-09-12T07:46:20;14.30;;;9.90;;
2562;SDS011;1291;51.420;6.970;2022-09-12T07:48:53;14.43;;;10.13;;
2562;SDS011;1291;51.420;6.970;2022-09-12T07:51:20;14.90;;;10.23;;
2562;SDS011;1291;51.420;6.970;2022-09-12T07:53:46;14.52;;;9.85;;
2562;SDS011;1291;51.420;6.970;2022-09-12T07:56:13;14.27;;;9.88;;
2562;SDS011;1291;51.420;6.970;2022-09-12T07:58:40;15.38;;;10.27;;
2562;SDS011;1291;51.420;6.970;2022-09-12T08:01:07;12.90;;;9.88;;
2562;SDS011;1291;51.420;6.970;2022-09-12T08:03:36;16.15;;;10.07;;
2562;SDS011;1291;51.420;6.970;2022-09-12T08:08:34;14.75;;;10.18;;
2562;SDS011;1291;51.420;6.970;2022-09-12T08:11:02;13.82;;;10.68;;
2562;SDS011;1291;51.420;6.970;2022-09-12T08:13:30;14.32;;;10.13;;
2562;SDS011;1291;51.420;6.970;2022-09-12T08:16:00;11.13;;;9.77;;
2562;SDS011;1291;51.420;6.970;2022-09-12T08:18:27;12.10;;;10.20;;
2562;SDS011;1291;51.420;6.970;2022-09-12T08:23:23;12.25;;;10.27;;
2562;SDS011;1291;51.420;6.970;2022-09-12T08:25:50;14.98;;;9.57;;
2562;SDS011;1291;51.420;6.970;2022-09-12T08:28:16;14.18;;;10.30;;
2562;SDS011;1291;51.420;6.970;2022-09-12T08:30:41;13.20;;;9.70;;
2562;SDS011;1291;51.420;6.970;2022-09-12T08:33:07;19.35;;;9.82;;
2562;SDS011;1291;51.420;6.970;2022-09-12T08:35:32;13.85;;;9.85;;
2562;SDS011;1291;51.420;6.970;2022-09-12T08:37:57;15.32;;;10.15;;
2562;SDS011;1291;51.420;6.970;2022-09-12T08:40:23;11.05;;;9.50;;
2562;SDS011;1291;51.420;6.970;2022-09-12T08:45:42;11.60;;;9.75;;
2562;SDS011;1291;51.420;6.970;2022-09-12T08:48:18;12.52;;;9.43;;
2562;SDS011;1291;51.420;6.970;2022-09-12T08:50:43;11.40;;;9.45;;
2562;SDS011;1291;51.420;6.970;2022-09-12T08:53:13;13.35;;;9.30;;
2562;SDS011;1291;51.420;6.970;2022-09-12T08:55:46;10.80;;;9.25;;
2562;SDS011;1291;51.420;6.970;2022-09-12T08:58:18;12.18;;;9.75;;
2562;SDS011;1291;51.420;6.970;2022-09-12T09:00:57;11.77;;;8.45;;
2562;SDS011;1291;51.420;6.970;2022-09-12T09:20:21;10.35;;;8.05;;
2562;SDS011;1291;51.420;6.970;2022-09-12T09:23:15;9.18;;;8.23;;
2562;SDS011;1291;51.420;6.970;2022-09-12T09:25:57;9.93;;;7.63;;
2562;SDS011;1291;51.420;6.970;2022-09-12T09:31:15;8.52;;;7.38;;
2562;SDS011;1291;51.420;6.970;2022-09-12T09:33:42;7.75;;;6.20;;
2562;SDS011;1291;51.420;6.970;2022-09-12T09:36:20;9.82;;;7.25;;
2562;SDS011;1291;51.420;6.970;2022-09-12T09:39:30;8.30;;;7.05;;
2562;SDS011;1291;51.420;6.970;2022-09-12T09:45:12;7.18;;;6.28;;
2562;SDS011;1291;51.420;6.970;2022-09-12T09:47:44;7.30;;;6.53;;
2562;SDS011;1291;51.420;6.970;2022-09-12T09:50:15;6.80;;;5.43;;
2562;SDS011;1291;51.420;6.970;2022-09-12T09:52:41;6.47;;;5.82;;
2562;SDS011;1291;51.420;6.970;2022-09-12T09:55:11;9.05;;;6.03;;
2562;SDS011;1291;51.420;6.970;2022-09-12T09:57:42;7.45;;;5.18;;
2562;SDS011;1291;51.420;6.970;2022-09-12T10:00:25;5.90;;;5.22;;
2562;SDS011;1291;51.420;6.970;2022-09-12T10:03:06;5.22;;;4.38;;
2562;SDS011;1291;51.420;6.970;2022-09-12T10:08:46;5.75;;;3.63;;
2562;SDS011;1291;51.420;6.970;2022-09-12T10:13:53;3.85;;;3.53;;
2562;SDS011;1291;51.420;6.970;2022-09-12T10:16:32;4.25;;;3.50;;
2562;SDS011;1291;51.420;6.970;2022-09-12T10:19:18;3.97;;;3.67;;
2562;SDS011;1291;51.420;6.970;2022-09-12T10:21:52;6.30;;;4.05;;
2562;SDS011;1291;51.420;6.970;2022-09-12T10:24:24;5.32;;;4.30;;
2562;SDS011;1291;51.420;6.970;2022-09-12T10:30:18;4.93;;;3.78;;
2562;SDS011;1291;51.420;6.970;2022-09-12T10:32:47;3.60;;;3.30;;
2562;SDS011;1291;51.420;6.970;2022-09-12T10:35:24;3.85;;;3.22;;
2562;SDS011;1291;51.420;6.970;2022-09-12T10:37:55;5.53;;;3.30;;
2562;SDS011;1291;51.420;6.970;2022-09-12T10:40:27;3.58;;;3.28;;
2562;SDS011;1291;51.420;6.970;2022-09-12T10:42:59;3.72;;;3.42;;
2562;SDS011;1291;51.420;6.970;2022-09-12T10:45:28;3.45;;;3.15;;
2562;SDS011;1291;51.420;6.970;2022-09-12T10:47:54;3.30;;;3.08;;
2562;SDS011;1291;51.420;6.970;2022-09-12T10:52:48;3.63;;;2.83;;
2562;SDS011;1291;51.420;6.970;2022-09-12T10:55:14;6.53;;;3.22;;
2562;SDS011;1291;51.420;6.970;2022-09-12T11:00:14;3.78;;;3.17;;
2562;SDS011;1291;51.420;6.970;2022-09-12T11:02:58;5.03;;;3.00;;
2562;SDS011;1291;51.420;6.970;2022-09-12T11:11:57;4.45;;;3.40;;
2562;SDS011;1291;51.420;6.970;2022-09-12T11:16:53;4.80;;;3.08;;
2562;SDS011;1291;51.420;6.970;2022-09-12T11:22:28;3.30;;;3.00;;
2562;SDS011;1291;51.420;6.970;2022-09-12T11:33:38;3.55;;;3.25;;
2562;SDS011;1291;51.420;6.970;2022-09-12T11:36:09;3.67;;;3.38;;
2562;SDS011;1291;51.420;6.970;2022-09-12T11:39:01;3.42;;;3.13;;
2562;SDS011;1291;51.420;6.970;2022-09-12T11:41:37;3.40;;;2.90;;
2562;SDS011;1291;51.420;6.970;2022-09-12T11:46:50;4.28;;;3.28;;
2562;SDS011;1291;51.420;6.970;2022-09-12T11:49:18;7.18;;;3.15;;
2562;SDS011;1291;51.420;6.970;2022-09-12T11:57:51;6.05;;;3.10;;
2562;SDS011;1291;51.420;6.970;2022-09-12T12:00:22;3.05;;;2.80;;
2562;SDS011;1291;51.420;6.970;2022-09-12T12:05:28;4.05;;;2.80;;
2562;SDS011;1291;51.420;6.970;2022-09-12T12:07:55;4.78;;;3.00;;
2562;SDS011;1291;51.420;6.970;2022-09-12T12:10:24;2.65;;;2.40;;
2562;SDS011;1291;51.420;6.970;2022-09-12T12:12:56;2.95;;;2.65;;
2562;SDS011;1291;51.420;6.970;2022-09-12T12:15:23;2.83;;;2.63;;
2562;SDS011;1291;51.420;6.970;2022-09-12T12:18:00;4.40;;;2.83;;
2562;SDS011;1291;51.420;6.970;2022-09-12T12:20:28;3.83;;;2.60;;
2562;SDS011;1291;51.420;6.970;2022-09-12T12:22:53;3.10;;;2.80;;
2562;SDS011;1291;51.420;6.970;2022-09-12T12:31:05;2.97;;;2.67;;
2562;SDS011;1291;51.420;6.970;2022-09-12T12:38:39;3.08;;;2.58;;
2562;SDS011;1291;51.420;6.970;2022-09-12T12:43:43;3.65;;;2.72;;
2562;SDS011;1291;51.420;6.970;2022-09-12T12:46:13;3.30;;;2.70;;
2562;SDS011;1291;51.420;6.970;2022-09-12T12:49:24;3.67;;;2.60;;
2562;SDS011;1291;51.420;6.970;2022-09-12T12:51:35;2.50;;;2.30;;
2562;SDS011;1291;51.420;6.970;2022-09-12T12:57:03;3.55;;;2.40;;
2562;SDS011;1291;51.420;6.970;2022-09-12T12:59:49;2.72;;;2.10;;
2562;SDS011;1291;51.420;6.970;2022-09-12T13:02:19;2.40;;;2.20;;
2562;SDS011;1291;51.420;6.970;2022-09-12T13:04:47;3.15;;;2.47;;
2562;SDS011;1291;51.420;6.970;2022-09-12T13:07:19;3.17;;;2.10;;
2562;SDS011;1291;51.420;6.970;2022-09-12T13:09:50;3.35;;;2.53;;
2562;SDS011;1291;51.420;6.970;2022-09-12T13:12:24;2.40;;;2.20;;
2562;SDS011;1291;51.420;6.970;2022-09-12T13:17:41;2.80;;;2.58;;
2562;SDS011;1291;51.420;6.970;2022-09-12T13:22:38;15.65;;;3.38;;
2562;SDS011;1291;51.420;6.970;2022-09-12T13:25:26;10.70;;;3.10;;
2562;SDS011;1291;51.420;6.970;2022-09-12T13:30:37;3.00;;;2.70;;
2562;SDS011;1291;51.420;6.970;2022-09-12T13:33:17;2.78;;;2.58;;
2562;SDS011;1291;51.420;6.970;2022-09-12T13:35:55;3.15;;;2.78;;
2562;SDS011;1291;51.420;6.970;2022-09-12T13:45:20;3.28;;;2.65;;
2562;SDS011;1291;51.420;6.970;2022-09-12T13:47:35;3.63;;;2.88;;
2562;SDS011;1291;51.420;6.970;2022-09-12T13:50:06;2.53;;;2.33;;
2562;SDS011;1291;51.420;6.970;2022-09-12T13:52:36;4.13;;;2.50;;
2562;SDS011;1291;51.420;6.970;2022-09-12T13:55:07;2.97;;;2.63;;
2562;SDS011;1291;51.420;6.970;2022-09-12T13:57:42;2.83;;;2.53;;
2562;SDS011;1291;51.420;6.970;2022-09-12T14:00:12;2.63;;;2.40;;
2562;SDS011;1291;51.420;6.970;2022-09-12T14:02:46;2.60;;;2.40;;
2562;SDS011;1291;51.420;6.970;2022-09-12T14:05:18;2.60;;;2.40;;
2562;SDS011;1291;51.420;6.970;2022-09-12T14:08:01;4.50;;;2.65;;
2562;SDS011;1291;51.420;6.970;2022-09-12T14:10:39;2.72;;;2.53;;
2562;SDS011;1291;51.420;6.970;2022-09-12T14:13:28;2.67;;;2.47;;
2562;SDS011;1291;51.420;6.970;2022-09-12T14:15:54;3.30;;;3.00;;
2562;SDS011;1291;51.420;6.970;2022-09-12T14:18:25;6.20;;;2.97;;
2562;SDS011;1291;51.420;6.970;2022-09-12T14:20:52;4.43;;;3.10;;
2562;SDS011;1291;51.420;6.970;2022-09-12T14:23:31;2.53;;;2.33;;
2562;SDS011;1291;51.420;6.970;2022-09-12T14:25:58;2.85;;;2.65;;
2562;SDS011;1291;51.420;6.970;2022-09-12T14:28:26;3.30;;;3.00;;
2562;SDS011;1291;51.420;6.970;2022-09-12T14:31:04;6.40;;;2.70;;
2562;SDS011;1291;51.420;6.970;2022-09-12T14:33:33;2.75;;;2.55;;
2562;SDS011;1291;51.420;6.970;2022-09-12T14:36:29;3.45;;;2.70;;
2562;SDS011;1291;51.420;6.970;2022-09-12T14:39:02;4.22;;;3.15;;
2562;SDS011;1291;51.420;6.970;2022-09-12T14:44:03;3.50;;;2.60;;
2562;SDS011;1291;51.420;6.970;2022-09-12T14:46:35;3.08;;;2.78;;
2562;SDS011;1291;51.420;6.970;2022-09-12T14:51:59;3.13;;;2.92;;
2562;SDS011;1291;51.420;6.970;2022-09-12T14:56:56;3.33;;;3.13;;
2562;SDS011;1291;51.420;6.970;2022-09-12T14:59:39;3.20;;;2.90;;
2562;SDS011;1291;51.420;6.970;2022-09-12T15:04:46;4.45;;;3.10;;
2562;SDS011;1291;51.420;6.970;2022-09-12T15:07:31;3.22;;;2.92;;
2562;SDS011;1291;51.420;6.970;2022-09-12T15:10:00;5.38;;;2.80;;
2562;SDS011;1291;51.420;6.970;2022-09-12T15:12:29;4.47;;;2.70;;
2562;SDS011;1291;51.420;6.970;2022-09-12T15:14:57;3.08;;;2.88;;
2562;SDS011;1291;51.420;6.970;2022-09-12T15:17:28;5.05;;;3.30;;
2562;SDS011;1291;51.420;6.970;2022-09-12T15:19:53;3.70;;;2.72;;
2562;SDS011;1291;51.420;6.970;2022-09-12T15:22:18;3.10;;;2.90;;
2562;SDS011;1291;51.420;6.970;2022-09-12T15:24:48;3.03;;;2.75;;
2562;SDS011;1291;51.420;6.970;2022-09-12T15:27:13;6.25;;;2.47;;
2562;SDS011;1291;51.420;6.970;2022-09-12T15:29:39;3.08;;;2.75;;
2562;SDS011;1291;51.420;6.970;2022-09-12T15:32:04;2.92;;;2.70;;
2562;SDS011;1291;51.420;6.970;2022-09-12T15:34:36;3.03;;;2.72;;
2562;SDS011;1291;51.420;6.970;2022-09-12T15:37:04;3.25;;;2.95;;
2562;SDS011;1291;51.420;6.970;2022-09-12T15:39:36;3.95;;;2.90;;
2562;SDS011;1291;51.420;6.970;2022-09-12T15:42:05;3.15;;;2.85;;
2562;SDS011;1291;51.420;6.970;2022-09-12T15:44:30;3.17;;;2.55;;
2562;SDS011;1291;51.420;6.970;2022-09-12T15:46:56;3.90;;;2.67;;
2562;SDS011;1291;51.420;6.970;2022-09-12T15:49:21;3.25;;;2.85;;
2562;SDS011;1291;51.420;6.970;2022-09-12T15:51:47;2.60;;;2.40;;
2562;SDS011;1291;51.420;6.970;2022-09-12T15:54:12;7.05;;;2.67;;
2562;SDS011;1291;51.420;6.970;2022-09-12T15:56:39;2.40;;;2.20;;
2562;SDS011;1291;51.420;6.970;2022-09-12T15:59:04;3.20;;;2.35;;
2562;SDS011;1291;51.420;6.970;2022-09-12T16:01:36;3.05;;;2.63;;
2562;SDS011;1291;51.420;6.970;2022-09-12T16:04:02;2.88;;;2.67;;
2562;SDS011;1291;51.420;6.970;2022-09-12T16:06:28;2.60;;;2.40;;
2562;SDS011;1291;51.420;6.970;2022-09-12T16:08:55;3.78;;;2.85;;
2562;SDS011;1291;51.420;6.970;2022-09-12T16:11:27;2.90;;;2.70;;
2562;SDS011;1291;51.420;6.970;2022-09-12T16:13:53;2.92;;;2.65;;
2562;SDS011;1291;51.420;6.970;2022-09-12T16:16:20;3.05;;;2.80;;
2562;SDS011;1291;51.420;6.970;2022-09-12T16:18:45;3.25;;;2.50;;
2562;SDS011;1291;51.420;6.970;2022-09-12T16:21:11;3.55;;;2.88;;
2562;SDS011;1291;51.420;6.970;2022-09-12T16:23:36;3.33;;;2.65;;
2562;SDS011;1291;51.420;6.970;2022-09-12T16:26:04;2.92;;;2.58;;
2562;SDS011;1291;51.420;6.970;2022-09-12T16:28:30;3.47;;;2.60;;
2562;SDS011;1291;51.420;6.970;2022-09-12T16:31:01;3.03;;;2.67;;
2562;SDS011;1291;51.420;6.970;2022-09-12T16:33:28;3.88;;;2.63;;
2562;SDS011;1291;51.420;6.970;2022-09-12T16:36:16;2.42;;;2.22;;
2562;SDS011;1291;51.420;6.970;2022-09-12T16:38:43;5.95;;;2.33;;
2562;SDS011;1291;51.420;6.970;2022-09-12T16:41:11;3.00;;;2.70;;
2562;SDS011;1291;51.420;6.970;2022-09-12T16:43:37;3.75;;;2.88;;
2562;SDS011;1291;51.420;6.970;2022-09-12T16:46:03;3.67;;;2.60;;
2562;SDS011;1291;51.420;6.970;2022-09-12T16:48:33;4.43;;;2.55;;
2562;SDS011;1291;51.420;6.970;2022-09-12T16:51:00;4.25;;;3.05;;
2562;SDS011;1291;51.420;6.970;2022-09-12T16:53:33;2.63;;;2.42;;
2562;SDS011;1291;51.420;6.970;2022-09-12T16:56:01;2.80;;;2.60;;
2562;SDS011;1291;51.420;6.970;2022-09-12T16:58:30;2.83;;;2.63;;
2562;SDS011;1291;51.420;6.970;2022-09-12T17:01:00;2.75;;;2.55;;
2562;SDS011;1291;51.420;6.970;2022-09-12T17:03:30;2.88;;;2.67;;
2562;SDS011;1291;51.420;6.970;2022-09-12T17:05:59;3.00;;;2.72;;
2562;SDS011;1291;51.420;6.970;2022-09-12T17:08:31;4.13;;;2.90;;
2562;SDS011;1291;51.420;6.970;2022-09-12T17:11:02;3.15;;;2.65;;
2562;SDS011;1291;51.420;6.970;2022-09-12T17:13:29;4.10;;;2.72;;
2562;SDS011;1291;51.420;6.970;2022-09-12T17:15:55;4.15;;;2.85;;
2562;SDS011;1291;51.420;6.970;2022-09-12T17:18:21;3.08;;;2.78;;
2562;SDS011;1291;51.420;6.970;2022-09-12T17:20:47;3.00;;;2.58;;
2562;SDS011;1291;51.420;6.970;2022-09-12T17:23:16;3.65;;;3.30;;
2562;SDS011;1291;51.420;6.970;2022-09-12T17:25:49;5.13;;;3.30;;
2562;SDS011;1291;51.420;6.970;2022-09-12T17:28:18;3.55;;;2.95;;
2562;SDS011;1291;51.420;6.970;2022-09-12T17:30:44;3.40;;;2.85;;
2562;SDS011;1291;51.420;6.970;2022-09-12T17:33:10;3.20;;;2.90;;
2562;SDS011;1291;51.420;6.970;2022-09-12T17:35:35;3.30;;;2.92;;
2562;SDS011;1291;51.420;6.970;2022-09-12T17:38:02;3.92;;;2.92;;
2562;SDS011;1291;51.420;6.970;2022-09-12T17:40:29;3.17;;;2.90;;
2562;SDS011;1291;51.420;6.970;2022-09-12T17:42:55;3.50;;;3.20;;
2562;SDS011;1291;51.420;6.970;2022-09-12T17:45:24;3.55;;;3.25;;
2562;SDS011;1291;51.420;6.970;2022-09-12T17:47:49;3.30;;;3.00;;
2562;SDS011;1291;51.420;6.970;2022-09-12T17:50:15;3.40;;;3.10;;
2562;SDS011;1291;51.420;6.970;2022-09-12T17:52:42;3.47;;;3.10;;
2562;SDS011;1291;51.420;6.970;2022-09-12T17:55:08;3.75;;;2.75;;
2562;SDS011;1291;51.420;6.970;2022-09-12T17:57:33;3.42;;;3.13;;
2562;SDS011;1291;51.420;6.970;2022-09-12T18:00:02;4.30;;;2.97;;
2562;SDS011;1291;51.420;6.970;2022-09-12T18:02:28;3.83;;;3.25;;
2562;SDS011;1291;51.420;6.970;2022-09-12T18:04:53;3.22;;;2.53;;
2562;SDS011;1291;51.420;6.970;2022-09-12T18:07:18;3.20;;;2.90;;
2562;SDS011;1291;51.420;6.970;2022-09-12T18:09:44;3.53;;;3.22;;
2562;SDS011;1291;51.420;6.970;2022-09-12T18:12:14;3.88;;;3.45;;
2562;SDS011;1291;51.420;6.970;2022-09-12T18:14:40;4.45;;;3.20;;
2562;SDS011;1291;51.420;6.970;2022-09-12T18:17:05;4.07;;;3.55;;
2562;SDS011;1291;51.420;6.970;2022-09-12T18:19:32;3.55;;;3.25;;
2562;SDS011;1291;51.420;6.970;2022-09-12T18:21:59;3.25;;;2.95;;